createdAt,value
2023-04-20T00:00:52.897Z,593.00
2023-04-20T00:01:52.860Z,591.00
2023-04-20T00:02:52.814Z,590.00
2023-04-20T00:03:52.996Z,589.00
2023-04-20T00:04:52.612Z,588.00
2023-04-20T00:05:52.501Z,589.00
2023-04-20T00:06:52.405Z,592.00
2023-04-20T00:07:52.331Z,589.00
2023-04-20T00:08:52.264Z,588.00
2023-04-20T00:09:52.129Z,583.00
2023-04-20T00:10:52.006Z,584.00
2023-04-20T00:11:51.856Z,585.00
2023-04-20T00:12:51.752Z,585.00
2023-04-20T00:13:51.654Z,587.00
2023-04-20T00:14:51.584Z,587.00
2023-04-20T00:15:51.489Z,585.00
2023-04-20T00:16:51.416Z,589.00
2023-04-20T00:17:51.339Z,587.00
2023-04-20T00:18:51.247Z,586.00
2023-04-20T00:19:51.143Z,583.00
2023-04-20T00:20:51.077Z,585.00
2023-04-20T00:21:50.952Z,584.00
2023-04-20T00:22:50.864Z,584.00
2023-04-20T00:23:50.736Z,582.00
2023-04-20T00:24:50.634Z,579.00
2023-04-20T00:25:50.551Z,579.00
2023-04-20T00:26:50.469Z,580.00
2023-04-20T00:27:50.404Z,578.00
2023-04-20T00:28:50.308Z,579.00
2023-04-20T00:29:50.253Z,576.00
2023-04-20T00:30:50.207Z,575.00
2023-04-20T00:31:50.054Z,573.00
2023-04-20T00:32:50.021Z,571.00
2023-04-20T00:33:49.913Z,573.00
2023-04-20T00:34:49.829Z,571.00
2023-04-20T00:35:49.719Z,570.00
2023-04-20T00:36:49.640Z,571.00
2023-04-20T00:37:49.548Z,569.00
2023-04-20T00:38:49.495Z,569.00
2023-04-20T00:39:49.413Z,571.00
2023-04-20T00:40:49.330Z,572.00
2023-04-20T00:41:49.233Z,570.00
2023-04-20T00:42:49.161Z,570.00
2023-04-20T00:43:49.093Z,569.00
2023-04-20T00:44:48.993Z,570.00
2023-04-20T00:45:48.984Z,569.00
2023-04-20T00:46:48.835Z,571.00
2023-04-20T00:47:48.801Z,571.00
2023-04-20T00:48:48.685Z,571.00
2023-04-20T00:49:48.580Z,572.00
2023-04-20T00:50:48.502Z,573.00
2023-04-20T00:51:48.439Z,573.00
2023-04-20T00:52:48.381Z,572.00
2023-04-20T00:53:48.279Z,568.00
2023-04-20T00:54:48.186Z,566.00
2023-04-20T00:55:48.099Z,565.00
2023-04-20T00:56:47.993Z,563.00
2023-04-20T00:57:47.922Z,563.00
2023-04-20T00:58:47.830Z,562.00
2023-04-20T00:59:47.745Z,561.00
2023-04-20T01:00:47.675Z,561.00
2023-04-20T01:01:47.667Z,562.00
2023-04-20T01:02:47.563Z,564.00
2023-04-20T01:03:47.559Z,563.00
2023-04-20T01:04:47.317Z,564.00
2023-04-20T01:05:47.229Z,564.00
2023-04-20T01:06:47.131Z,563.00
2023-04-20T01:07:47.045Z,561.00
2023-04-20T01:08:46.941Z,561.00
2023-04-20T01:09:46.909Z,559.00
2023-04-20T01:10:46.788Z,557.00
2023-04-20T01:11:46.714Z,557.00
2023-04-20T01:12:46.654Z,559.00
2023-04-20T01:13:46.575Z,559.00
2023-04-20T01:14:46.430Z,560.00
2023-04-20T01:15:46.393Z,561.00
2023-04-20T01:16:46.267Z,560.00
2023-04-20T01:17:46.221Z,555.00
2023-04-20T01:18:46.094Z,556.00
2023-04-20T01:19:45.964Z,557.00
2023-04-20T01:20:45.863Z,559.00
2023-04-20T01:21:45.786Z,559.00
2023-04-20T01:22:45.712Z,561.00
2023-04-20T01:23:45.637Z,561.00
2023-04-20T01:24:45.563Z,559.00
2023-04-20T01:25:45.483Z,560.00
2023-04-20T01:26:45.386Z,559.00
2023-04-20T01:27:45.274Z,559.00
2023-04-20T01:28:45.198Z,557.00
2023-04-20T01:29:45.113Z,558.00
2023-04-20T01:30:45.054Z,560.00
2023-04-20T01:31:44.971Z,558.00
2023-04-20T01:32:44.907Z,556.00
2023-04-20T01:33:44.758Z,557.00
2023-04-20T01:34:44.615Z,555.00
2023-04-20T01:35:44.467Z,553.00
2023-04-20T01:36:44.339Z,553.00
2023-04-20T01:37:44.198Z,553.00
2023-04-20T01:38:44.047Z,552.00
2023-04-20T01:39:43.919Z,552.00
2023-04-20T01:40:43.735Z,551.00
2023-04-20T01:41:43.578Z,550.00
2023-04-20T01:42:43.451Z,551.00
2023-04-20T01:43:43.387Z,549.00
2023-04-20T01:44:43.312Z,548.00
2023-04-20T01:45:43.249Z,547.00
2023-04-20T01:46:43.213Z,544.00
2023-04-20T01:47:43.131Z,542.00
2023-04-20T01:48:43.061Z,544.00
2023-04-20T01:49:42.947Z,544.00
2023-04-20T01:50:42.883Z,543.00
2023-04-20T01:51:42.796Z,542.00
2023-04-20T01:52:42.721Z,541.00
2023-04-20T01:53:42.668Z,540.00
2023-04-20T01:54:42.563Z,539.00
2023-04-20T01:55:42.502Z,537.00
2023-04-20T01:56:42.414Z,538.00
2023-04-20T01:57:42.337Z,540.00
2023-04-20T01:58:42.281Z,544.00
2023-04-20T01:59:42.198Z,544.00
2023-04-20T02:00:42.158Z,546.00
2023-04-20T02:01:42.052Z,547.00
2023-04-20T02:02:42.121Z,544.00
2023-04-20T02:03:42.085Z,543.00
2023-04-20T02:04:41.792Z,543.00
2023-04-20T02:05:41.689Z,544.00
2023-04-20T02:06:41.580Z,544.00
2023-04-20T02:07:41.494Z,544.00
2023-04-20T02:08:41.423Z,545.00
2023-04-20T02:09:41.326Z,545.00
2023-04-20T02:10:41.265Z,544.00
2023-04-20T02:11:41.173Z,542.00
2023-04-20T02:12:41.109Z,543.00
2023-04-20T02:13:41.019Z,543.00
2023-04-20T02:14:40.885Z,545.00
2023-04-20T02:15:40.831Z,544.00
2023-04-20T02:16:40.741Z,542.00
2023-04-20T02:17:40.718Z,541.00
2023-04-20T02:18:40.561Z,541.00
2023-04-20T02:20:59.354Z,547.00
2023-04-20T02:21:59.361Z,541.00
2023-04-20T02:22:59.369Z,543.00
2023-04-20T02:23:59.390Z,541.00
2023-04-20T02:24:59.383Z,543.00
2023-04-20T02:25:59.384Z,543.00
2023-04-20T02:26:59.386Z,543.00
2023-04-20T02:27:59.399Z,542.00
2023-04-20T02:28:59.439Z,541.00
2023-04-20T02:29:59.385Z,541.00
2023-04-20T02:30:59.429Z,539.00
2023-04-20T02:31:59.395Z,539.00
2023-04-20T02:32:59.434Z,539.00
2023-04-20T02:33:59.425Z,539.00
2023-04-20T02:34:59.423Z,539.00
2023-04-20T02:35:59.455Z,539.00
2023-04-20T02:36:59.442Z,540.00
2023-04-20T02:37:59.459Z,538.00
2023-04-20T02:38:59.445Z,537.00
2023-04-20T02:39:59.446Z,537.00
2023-04-20T02:40:59.470Z,536.00
2023-04-20T02:41:59.495Z,538.00
2023-04-20T02:42:59.505Z,540.00
2023-04-20T02:43:59.549Z,541.00
2023-04-20T02:44:59.575Z,541.00
2023-04-20T02:45:59.731Z,541.00
2023-04-20T02:46:59.658Z,535.00
2023-04-20T02:47:59.738Z,527.00
2023-04-20T02:48:59.777Z,524.00
2023-04-20T02:49:59.809Z,518.00
2023-04-20T02:50:59.888Z,514.00
2023-04-20T02:51:59.968Z,511.00
2023-04-20T02:53:00.068Z,508.00
2023-04-20T02:54:00.190Z,506.00
2023-04-20T02:55:00.195Z,506.00
2023-04-20T02:56:00.235Z,504.00
2023-04-20T02:57:00.263Z,498.00
2023-04-20T02:58:00.305Z,495.00
2023-04-20T02:59:00.343Z,492.00
2023-04-20T03:00:00.390Z,492.00
2023-04-20T03:01:00.424Z,492.00
2023-04-20T03:02:00.591Z,490.00
2023-04-20T03:03:00.674Z,490.00
2023-04-20T03:04:00.665Z,488.00
2023-04-20T03:05:00.655Z,487.00
2023-04-20T03:06:00.742Z,483.00
2023-04-20T03:07:00.819Z,480.00
2023-04-20T03:08:00.889Z,475.00
2023-04-20T03:09:00.966Z,473.00
2023-04-20T03:10:01.086Z,474.00
2023-04-20T03:11:01.109Z,476.00
2023-04-20T03:12:01.185Z,475.00
2023-04-20T03:13:01.268Z,471.00
2023-04-20T03:14:01.370Z,470.00
2023-04-20T03:15:01.463Z,463.00
2023-04-20T03:16:01.547Z,461.00
2023-04-20T03:17:01.640Z,463.00
2023-04-20T03:18:01.732Z,466.00
2023-04-20T03:19:01.776Z,467.00
2023-04-20T03:20:01.850Z,471.00
2023-04-20T03:21:01.915Z,466.00
2023-04-20T03:22:02.008Z,460.00
2023-04-20T03:23:02.074Z,461.00
2023-04-20T03:24:02.157Z,460.00
2023-04-20T03:25:02.219Z,459.00
2023-04-20T03:26:02.302Z,459.00
2023-04-20T03:27:02.344Z,458.00
2023-04-20T03:28:02.421Z,459.00
2023-04-20T03:29:02.485Z,462.00
2023-04-20T03:30:02.564Z,459.00
2023-04-20T03:31:02.631Z,458.00
2023-04-20T03:32:02.795Z,459.00
2023-04-20T03:33:02.959Z,455.00
2023-04-20T03:34:02.897Z,455.00
2023-04-20T03:35:02.968Z,455.00
2023-04-20T03:36:03.051Z,453.00
2023-04-20T03:37:03.155Z,452.00
2023-04-20T03:38:03.229Z,449.00
2023-04-20T03:39:03.330Z,451.00
2023-04-20T03:40:03.389Z,451.00
2023-04-20T03:41:03.487Z,452.00
2023-04-20T03:42:03.573Z,453.00
2023-04-20T03:43:03.640Z,455.00
2023-04-20T03:44:03.714Z,455.00
2023-04-20T03:45:03.813Z,455.00
2023-04-20T03:46:03.930Z,455.00
2023-04-20T03:47:04.000Z,457.00
2023-04-20T03:48:04.146Z,457.00
2023-04-20T03:49:04.214Z,457.00
2023-04-20T03:50:04.294Z,457.00
2023-04-20T03:51:04.392Z,455.00
2023-04-20T03:52:04.485Z,455.00
2023-04-20T03:53:04.577Z,456.00
2023-04-20T03:54:04.686Z,453.00
2023-04-20T03:55:04.799Z,452.00
2023-04-20T03:56:04.875Z,452.00
2023-04-20T03:57:04.980Z,453.00
2023-04-20T03:58:05.070Z,455.00
2023-04-20T03:59:05.161Z,452.00
2023-04-20T04:00:05.286Z,453.00
2023-04-20T04:01:05.384Z,455.00
2023-04-20T04:02:05.498Z,454.00
2023-04-20T04:03:05.681Z,454.00
2023-04-20T04:04:05.928Z,453.00
2023-04-20T04:05:05.780Z,454.00
2023-04-20T04:06:05.777Z,452.00
2023-04-20T04:07:05.840Z,451.00
2023-04-20T04:08:05.917Z,450.00
2023-04-20T04:09:05.986Z,450.00
2023-04-20T04:10:06.081Z,449.00
2023-04-20T04:11:06.130Z,450.00
2023-04-20T04:12:06.212Z,450.00
2023-04-20T04:13:06.285Z,448.00
2023-04-20T04:14:06.368Z,449.00
2023-04-20T04:15:06.423Z,449.00
2023-04-20T04:16:06.504Z,448.00
2023-04-20T04:17:06.628Z,449.00
2023-04-20T04:18:06.703Z,449.00
2023-04-20T04:19:06.624Z,451.00
2023-04-20T04:20:06.661Z,452.00
2023-04-20T04:21:06.701Z,452.00
2023-04-20T04:22:06.729Z,453.00
2023-04-20T04:23:06.761Z,452.00
2023-04-20T04:24:06.787Z,450.00
2023-04-20T04:25:06.812Z,451.00
2023-04-20T04:26:06.836Z,451.00
2023-04-20T04:27:06.873Z,452.00
2023-04-20T04:28:06.920Z,452.00
2023-04-20T04:29:06.948Z,451.00
2023-04-20T04:30:06.981Z,451.00
2023-04-20T04:31:07.074Z,452.00
2023-04-20T04:32:07.157Z,452.00
2023-04-20T04:33:07.268Z,452.00
2023-04-20T04:34:07.314Z,453.00
2023-04-20T04:35:07.428Z,454.00
2023-04-20T04:36:07.505Z,456.00
2023-04-20T04:37:07.561Z,455.00
2023-04-20T04:38:07.650Z,453.00
2023-04-20T04:39:07.729Z,449.00
2023-04-20T04:40:07.810Z,446.00
2023-04-20T04:41:07.860Z,447.00
2023-04-20T04:42:07.928Z,446.00
2023-04-20T04:43:07.972Z,445.00
2023-04-20T04:44:08.036Z,445.00
2023-04-20T04:45:08.122Z,446.00
2023-04-20T04:46:08.313Z,448.00
2023-04-20T04:47:08.310Z,447.00
2023-04-20T04:48:09.091Z,447.00
2023-04-20T04:49:08.489Z,452.00
2023-04-20T04:50:08.542Z,451.00
2023-04-20T04:51:08.614Z,452.00
2023-04-20T04:52:08.731Z,448.00
2023-04-20T04:53:08.803Z,451.00
2023-04-20T04:54:08.900Z,453.00
2023-04-20T04:55:08.984Z,456.00
2023-04-20T04:56:09.047Z,460.00
2023-04-20T04:57:09.107Z,463.00
2023-04-20T04:58:09.131Z,465.00
2023-04-20T04:59:09.190Z,466.00
2023-04-20T05:00:09.218Z,466.00
2023-04-20T05:01:09.251Z,469.00
2023-04-20T05:02:09.369Z,470.00
2023-04-20T05:03:09.374Z,469.00
2023-04-20T05:04:09.475Z,467.00
2023-04-20T05:05:10.147Z,467.00
2023-04-20T05:06:09.374Z,465.00
2023-04-20T05:07:09.396Z,466.00
2023-04-20T05:08:09.416Z,467.00
2023-04-20T05:09:09.440Z,467.00
2023-04-20T05:10:09.482Z,467.00
2023-04-20T05:11:09.493Z,466.00
2023-04-20T05:12:09.522Z,467.00
2023-04-20T05:13:09.558Z,467.00
2023-04-20T05:14:09.637Z,466.00
2023-04-20T05:15:09.582Z,465.00
2023-04-20T05:16:09.674Z,466.00
2023-04-20T05:17:09.628Z,467.00
2023-04-20T05:18:09.654Z,467.00
2023-04-20T05:19:09.710Z,466.00
2023-04-20T05:20:09.742Z,466.00
2023-04-20T05:21:09.789Z,468.00
2023-04-20T05:22:09.797Z,471.00
2023-04-20T05:23:09.804Z,468.00
2023-04-20T05:24:09.837Z,471.00
2023-04-20T05:26:09.837Z,463.00
2023-04-20T05:27:09.847Z,462.00
2023-04-20T05:28:09.859Z,460.00
2023-04-20T05:29:09.914Z,461.00
2023-04-20T05:30:20.372Z,459.00
2023-04-20T05:31:10.924Z,457.00
2023-04-20T05:32:10.002Z,458.00
2023-04-20T05:33:10.032Z,457.00
2023-04-20T05:34:10.017Z,458.00
2023-04-20T05:35:10.008Z,455.00
2023-04-20T05:36:10.053Z,455.00
2023-04-20T05:37:10.069Z,456.00
2023-04-20T05:38:10.103Z,456.00
2023-04-20T05:39:10.124Z,454.00
2023-04-20T05:40:10.181Z,454.00
2023-04-20T05:41:10.226Z,451.00
2023-04-20T05:42:10.249Z,451.00
2023-04-20T05:43:10.267Z,450.00
2023-04-20T05:44:10.370Z,447.00
2023-04-20T05:45:10.363Z,443.00
2023-04-20T05:46:10.513Z,442.00
2023-04-20T05:47:10.399Z,444.00
2023-04-20T05:48:10.448Z,446.00
2023-04-20T05:49:10.599Z,446.00
2023-04-20T05:50:10.486Z,444.00
2023-04-20T05:51:10.513Z,443.00
2023-04-20T05:52:10.577Z,445.00
2023-04-20T05:53:10.557Z,444.00
2023-04-20T05:54:10.598Z,443.00
2023-04-20T05:55:10.628Z,443.00
2023-04-20T05:56:10.684Z,444.00
2023-04-20T05:57:10.701Z,446.00
2023-04-20T05:58:10.720Z,447.00
2023-04-20T05:59:10.806Z,446.00
2023-04-20T06:00:10.772Z,446.00
2023-04-20T06:01:10.814Z,448.00
2023-04-20T06:02:10.974Z,448.00
2023-04-20T06:03:11.196Z,444.00
2023-04-20T06:04:11.296Z,446.00
2023-04-20T06:06:11.013Z,442.00
2023-04-20T06:07:11.028Z,443.00
2023-04-20T06:08:11.069Z,444.00
2023-04-20T06:09:11.113Z,444.00
2023-04-20T06:10:11.142Z,444.00
2023-04-20T06:12:30.141Z,451.00
2023-04-20T06:13:30.136Z,451.00
2023-04-20T06:14:30.141Z,453.00
2023-04-20T06:15:30.156Z,451.00
2023-04-20T06:16:30.237Z,453.00
2023-04-20T06:17:30.166Z,453.00
2023-04-20T06:18:30.212Z,455.00
2023-04-20T06:19:30.171Z,458.00
2023-04-20T06:20:30.155Z,458.00
2023-04-20T06:21:30.180Z,456.00
2023-04-20T06:22:30.176Z,456.00
2023-04-20T06:23:30.193Z,452.00
2023-04-20T06:24:30.144Z,451.00
2023-04-20T06:25:30.148Z,450.00
2023-04-20T06:26:30.142Z,450.00
2023-04-20T06:27:30.147Z,450.00
2023-04-20T06:28:30.142Z,447.00
2023-04-20T06:29:30.140Z,449.00
2023-04-20T06:30:30.170Z,449.00
2023-04-20T06:31:30.218Z,450.00
2023-04-20T06:32:30.154Z,454.00
2023-04-20T06:33:30.134Z,458.00
2023-04-20T06:34:30.139Z,458.00
2023-04-20T06:35:30.118Z,457.00
2023-04-20T06:36:30.145Z,458.00
2023-04-20T06:37:30.119Z,458.00
2023-04-20T06:38:30.141Z,460.00
2023-04-20T06:39:30.146Z,461.00
2023-04-20T06:40:30.190Z,461.00
2023-04-20T06:41:30.142Z,460.00
2023-04-20T06:42:30.120Z,462.00
2023-04-20T06:43:30.121Z,461.00
2023-04-20T06:44:30.142Z,459.00
2023-04-20T06:45:31.236Z,459.00
2023-04-20T06:46:30.231Z,459.00
2023-04-20T06:47:30.172Z,459.00
2023-04-20T06:48:32.647Z,462.00
2023-04-20T06:49:30.183Z,460.00
2023-04-20T06:50:30.154Z,462.00
2023-04-20T06:51:30.173Z,462.00
2023-04-20T06:52:30.151Z,460.00
2023-04-20T06:53:30.148Z,459.00
2023-04-20T06:54:30.202Z,461.00
2023-04-20T06:55:30.176Z,459.00
2023-04-20T06:56:30.174Z,457.00
2023-04-20T06:57:30.164Z,455.00
2023-04-20T06:58:30.142Z,455.00
2023-04-20T06:59:30.157Z,458.00
2023-04-20T07:00:30.329Z,459.00
2023-04-20T07:01:30.200Z,459.00
2023-04-20T07:02:30.184Z,459.00
2023-04-20T07:03:30.293Z,459.00
2023-04-20T07:04:30.227Z,457.00
2023-04-20T07:05:30.173Z,456.00
2023-04-20T07:06:30.180Z,455.00
2023-04-20T07:07:30.181Z,454.00
2023-04-20T07:08:30.194Z,454.00
2023-04-20T07:09:30.198Z,455.00
2023-04-20T07:10:30.222Z,453.00
2023-04-20T07:11:30.175Z,454.00
2023-04-20T07:12:30.175Z,455.00
2023-04-20T07:13:33.442Z,454.00
2023-04-20T07:14:30.192Z,454.00
2023-04-20T07:15:30.198Z,455.00
2023-04-20T07:16:30.234Z,453.00
2023-04-20T07:17:30.209Z,452.00
2023-04-20T07:18:30.216Z,452.00
2023-04-20T07:19:30.191Z,451.00
2023-04-20T07:20:30.194Z,451.00
2023-04-20T07:21:30.228Z,448.00
2023-04-20T07:22:30.242Z,449.00
2023-04-20T07:23:30.239Z,453.00
2023-04-20T07:24:30.206Z,453.00
2023-04-20T07:25:30.205Z,454.00
2023-04-20T07:26:30.209Z,455.00
2023-04-20T07:27:30.201Z,451.00
2023-04-20T07:28:30.208Z,449.00
2023-04-20T07:29:30.980Z,449.00
2023-04-20T07:30:30.217Z,447.00
2023-04-20T07:31:30.224Z,451.00
2023-04-20T07:32:30.303Z,451.00
2023-04-20T07:33:30.239Z,450.00
2023-04-20T07:34:30.263Z,449.00
2023-04-20T07:35:30.222Z,450.00
2023-04-20T07:36:30.209Z,450.00
2023-04-20T07:37:30.233Z,448.00
2023-04-20T07:38:30.203Z,446.00
2023-04-20T07:39:30.240Z,446.00
2023-04-20T07:40:30.213Z,446.00
2023-04-20T07:41:30.258Z,445.00
2023-04-20T07:42:30.327Z,448.00
2023-04-20T07:43:30.380Z,449.00
2023-04-20T07:44:30.456Z,450.00
2023-04-20T07:45:30.559Z,448.00
2023-04-20T07:46:30.558Z,447.00
2023-04-20T07:47:30.652Z,445.00
2023-04-20T07:48:30.626Z,447.00
2023-04-20T07:49:30.617Z,448.00
2023-04-20T07:50:30.634Z,448.00
2023-04-20T07:51:30.629Z,445.00
2023-04-20T07:52:30.645Z,446.00
2023-04-20T07:53:30.608Z,446.00
2023-04-20T07:54:30.615Z,446.00
2023-04-20T07:55:30.608Z,447.00
2023-04-20T07:56:30.593Z,448.00
2023-04-20T07:57:30.592Z,448.00
2023-04-20T07:58:30.611Z,449.00
2023-04-20T07:59:30.635Z,450.00
2023-04-20T08:00:30.654Z,450.00
2023-04-20T08:01:30.695Z,444.00
2023-04-20T08:02:30.860Z,450.00
2023-04-20T08:03:31.064Z,455.00
2023-04-20T08:04:31.185Z,457.00
2023-04-20T08:05:31.130Z,455.00
2023-04-20T08:06:30.968Z,457.00
2023-04-20T08:07:30.983Z,459.00
2023-04-20T08:08:31.074Z,455.00
2023-04-20T08:09:31.094Z,455.00
2023-04-20T08:10:31.125Z,459.00
2023-04-20T08:11:31.181Z,456.00
2023-04-20T08:12:31.223Z,457.00
2023-04-20T08:13:31.286Z,456.00
2023-04-20T08:14:31.298Z,454.00
2023-04-20T08:15:31.725Z,451.00
2023-04-20T08:16:31.425Z,451.00
2023-04-20T08:17:31.619Z,452.00
2023-04-20T08:18:31.457Z,451.00
2023-04-20T08:19:31.478Z,451.00
2023-04-20T08:21:31.537Z,449.00
2023-04-20T08:22:31.603Z,449.00
2023-04-20T08:23:31.619Z,448.00
2023-04-20T08:24:31.693Z,446.00
2023-04-20T08:25:31.698Z,444.00
2023-04-20T08:26:31.755Z,444.00
2023-04-20T08:27:31.793Z,448.00
2023-04-20T08:28:33.832Z,445.00
2023-04-20T08:29:31.919Z,444.00
2023-04-20T08:30:31.939Z,445.00
2023-04-20T08:31:32.065Z,447.00
2023-04-20T08:32:32.087Z,449.00
2023-04-20T08:33:32.115Z,447.00
2023-04-20T08:34:32.142Z,447.00
2023-04-20T08:35:32.071Z,447.00
2023-04-20T08:36:32.094Z,448.00
2023-04-20T08:37:33.050Z,451.00
2023-04-20T08:38:34.208Z,456.00
2023-04-20T08:39:32.100Z,454.00
2023-04-20T08:40:32.086Z,455.00
2023-04-20T08:41:32.085Z,454.00
2023-04-20T08:42:32.152Z,458.00
2023-04-20T08:43:32.187Z,458.00
2023-04-20T08:44:32.261Z,460.00
2023-04-20T08:45:32.274Z,460.00
2023-04-20T08:46:32.310Z,457.00
2023-04-20T08:47:32.280Z,458.00
2023-04-20T08:48:33.659Z,461.00
2023-04-20T08:49:32.275Z,464.00
2023-04-20T08:50:32.287Z,464.00
2023-04-20T08:51:32.250Z,463.00
2023-04-20T08:52:32.217Z,461.00
2023-04-20T08:53:32.190Z,464.00
2023-04-20T08:54:32.614Z,463.00
2023-04-20T08:55:32.166Z,466.00
2023-04-20T08:56:32.141Z,470.00
2023-04-20T08:57:32.119Z,469.00
2023-04-20T08:58:32.127Z,470.00
2023-04-20T08:59:32.192Z,473.00
2023-04-20T09:00:32.153Z,470.00
2023-04-20T09:01:35.575Z,472.00
2023-04-20T09:02:32.409Z,474.00
2023-04-20T09:03:32.428Z,476.00
2023-04-20T09:04:32.238Z,476.00
2023-04-20T09:05:32.204Z,474.00
2023-04-20T09:06:32.063Z,475.00
2023-04-20T09:07:32.010Z,474.00
2023-04-20T09:08:32.106Z,476.00
2023-04-20T09:09:31.987Z,477.00
2023-04-20T09:10:31.950Z,479.00
2023-04-20T09:11:31.915Z,481.00
2023-04-20T09:12:31.907Z,482.00
2023-04-20T09:13:31.867Z,482.00
2023-04-20T09:14:31.814Z,484.00
2023-04-20T09:15:31.778Z,487.00
2023-04-20T09:16:31.819Z,490.00
2023-04-20T09:17:31.719Z,489.00
2023-04-20T09:18:31.660Z,488.00
2023-04-20T09:19:31.694Z,488.00
2023-04-20T09:20:31.708Z,492.00
2023-04-20T09:21:31.595Z,491.00
2023-04-20T09:22:31.516Z,493.00
2023-04-20T09:23:31.491Z,495.00
2023-04-20T09:24:31.476Z,495.00
2023-04-20T09:25:31.436Z,494.00
2023-04-20T09:26:31.405Z,494.00
2023-04-20T09:27:31.399Z,493.00
2023-04-20T09:28:31.315Z,492.00
2023-04-20T09:29:31.292Z,493.00
2023-04-20T09:30:31.270Z,495.00
2023-04-20T09:31:31.296Z,495.00
2023-04-20T09:32:31.270Z,495.00
2023-04-20T09:33:31.173Z,495.00
2023-04-20T09:34:31.184Z,494.00
2023-04-20T09:35:31.163Z,495.00
2023-04-20T09:36:31.166Z,499.00
2023-04-20T09:37:31.209Z,500.00
2023-04-20T09:38:31.159Z,496.00
2023-04-20T09:39:31.149Z,494.00
2023-04-20T09:40:31.290Z,495.00
2023-04-20T09:41:31.133Z,495.00
2023-04-20T09:42:31.136Z,495.00
2023-04-20T09:43:31.229Z,496.00
2023-04-20T09:44:31.112Z,497.00
2023-04-20T09:45:31.131Z,496.00
2023-04-20T09:46:31.255Z,496.00
2023-04-20T09:47:31.181Z,496.00
2023-04-20T09:48:32.149Z,498.00
2023-04-20T09:49:31.082Z,498.00
2023-04-20T09:50:41.832Z,501.00
2023-04-20T09:51:32.043Z,502.00
2023-04-20T09:52:30.957Z,500.00
2023-04-20T09:53:30.932Z,501.00
2023-04-20T09:54:30.903Z,501.00
2023-04-20T09:55:30.878Z,503.00
2023-04-20T09:56:30.871Z,504.00
2023-04-20T09:57:30.808Z,501.00
2023-04-20T09:58:30.803Z,501.00
2023-04-20T09:59:30.745Z,503.00
2023-04-20T10:00:30.745Z,502.00
2023-04-20T10:01:30.711Z,500.00
2023-04-20T10:02:30.791Z,499.00
2023-04-20T10:03:30.841Z,500.00
2023-04-20T10:04:30.683Z,500.00
2023-04-20T10:05:30.564Z,504.00
2023-04-20T10:06:30.547Z,504.00
2023-04-20T10:07:30.480Z,503.00
2023-04-20T10:08:30.480Z,503.00
2023-04-20T10:09:30.420Z,506.00
2023-04-20T10:10:30.387Z,506.00
2023-04-20T10:11:40.549Z,507.00
2023-04-20T10:12:31.425Z,507.00
2023-04-20T10:13:30.305Z,507.00
2023-04-20T10:14:30.288Z,507.00
2023-04-20T10:15:30.249Z,508.00
2023-04-20T10:16:30.234Z,510.00
2023-04-20T10:17:30.225Z,512.00
2023-04-20T10:18:30.230Z,510.00
2023-04-20T10:19:30.116Z,512.00
2023-04-20T10:20:30.161Z,511.00
2023-04-20T10:21:30.069Z,509.00
2023-04-20T10:22:30.057Z,509.00
2023-04-20T10:23:30.019Z,510.00
2023-04-20T10:24:29.942Z,509.00
2023-04-20T10:25:29.908Z,512.00
2023-04-20T10:26:29.874Z,511.00
2023-04-20T10:27:29.829Z,510.00
2023-04-20T10:28:29.800Z,511.00
2023-04-20T10:29:29.766Z,509.00
2023-04-20T10:30:29.749Z,509.00
2023-04-20T10:31:29.751Z,507.00
2023-04-20T10:32:29.753Z,506.00
2023-04-20T10:33:29.674Z,506.00
2023-04-20T10:34:29.624Z,508.00
2023-04-20T10:35:29.559Z,508.00
2023-04-20T10:36:29.572Z,509.00
2023-04-20T10:37:29.584Z,511.00
2023-04-20T10:38:29.650Z,509.00
2023-04-20T10:39:29.630Z,507.00
2023-04-20T10:40:29.697Z,508.00
2023-04-20T10:41:29.704Z,508.00
2023-04-20T10:42:29.874Z,507.00
2023-04-20T10:43:29.724Z,507.00
2023-04-20T10:44:29.762Z,507.00
2023-04-20T10:45:29.795Z,507.00
2023-04-20T10:46:29.815Z,509.00
2023-04-20T10:47:29.898Z,508.00
2023-04-20T10:48:29.835Z,505.00
2023-04-20T10:49:29.858Z,507.00
2023-04-20T10:50:29.871Z,505.00
2023-04-20T10:51:29.868Z,507.00
2023-04-20T10:52:29.877Z,508.00
2023-04-20T10:53:29.919Z,510.00
2023-04-20T10:54:29.922Z,513.00
2023-04-20T10:55:29.934Z,512.00
2023-04-20T10:56:29.966Z,509.00
2023-04-20T10:57:29.912Z,510.00
2023-04-20T10:58:29.979Z,511.00
2023-04-20T10:59:29.925Z,513.00
2023-04-20T11:00:29.943Z,513.00
2023-04-20T11:01:29.956Z,513.00
2023-04-20T11:02:29.994Z,512.00
2023-04-20T11:03:29.933Z,516.00
2023-04-20T11:04:29.874Z,516.00
2023-04-20T11:05:29.772Z,515.00
2023-04-20T11:06:29.735Z,515.00
2023-04-20T11:07:29.695Z,515.00
2023-04-20T11:08:29.677Z,516.00
2023-04-20T11:09:29.636Z,515.00
2023-04-20T11:10:29.587Z,515.00
2023-04-20T11:11:29.549Z,516.00
2023-04-20T11:12:29.491Z,517.00
2023-04-20T11:13:29.463Z,514.00
2023-04-20T11:14:29.412Z,514.00
2023-04-20T11:15:29.370Z,517.00
2023-04-20T11:16:44.397Z,515.00
2023-04-20T11:17:30.384Z,515.00
2023-04-20T11:18:29.228Z,512.00
2023-04-20T11:19:29.225Z,515.00
2023-04-20T11:20:29.141Z,514.00
2023-04-20T11:21:29.128Z,513.00
2023-04-20T11:22:29.081Z,513.00
2023-04-20T11:23:29.065Z,512.00
2023-04-20T11:24:29.018Z,515.00
2023-04-20T11:25:28.967Z,521.00
2023-04-20T11:26:28.971Z,522.00
2023-04-20T11:27:28.882Z,518.00
2023-04-20T11:28:28.822Z,519.00
2023-04-20T11:29:28.785Z,519.00
2023-04-20T11:30:28.760Z,519.00
2023-04-20T11:31:28.749Z,515.00
2023-04-20T11:32:28.860Z,512.00
2023-04-20T11:33:28.654Z,512.00
2023-04-20T11:34:28.541Z,512.00
2023-04-20T11:35:28.513Z,511.00
2023-04-20T11:36:28.477Z,513.00
2023-04-20T11:37:28.437Z,511.00
2023-04-20T11:38:28.391Z,511.00
2023-04-20T11:39:28.366Z,513.00
2023-04-20T11:40:28.781Z,514.00
2023-04-20T11:41:28.281Z,513.00
2023-04-20T11:42:28.249Z,516.00
2023-04-20T11:43:28.185Z,514.00
2023-04-20T11:44:28.163Z,513.00
2023-04-20T11:45:28.173Z,514.00
2023-04-20T11:46:28.149Z,519.00
2023-04-20T11:47:28.062Z,521.00
2023-04-20T11:48:28.117Z,522.00
2023-04-20T11:49:27.954Z,523.00
2023-04-20T11:50:27.965Z,522.00
2023-04-20T11:51:27.900Z,522.00
2023-04-20T11:52:27.842Z,526.00
2023-04-20T11:53:27.819Z,527.00
2023-04-20T11:54:27.803Z,526.00
2023-04-20T11:55:27.718Z,525.00
2023-04-20T11:56:28.543Z,524.00
2023-04-20T11:57:27.642Z,520.00
2023-04-20T11:58:27.573Z,519.00
2023-04-20T11:59:27.541Z,518.00
2023-04-20T12:00:27.526Z,520.00
2023-04-20T12:01:27.453Z,519.00
2023-04-20T12:02:27.555Z,520.00
2023-04-20T12:03:27.607Z,517.00
2023-04-20T12:04:27.633Z,518.00
2023-04-20T12:05:27.443Z,523.00
2023-04-20T12:06:27.283Z,527.00
2023-04-20T12:07:27.216Z,527.00
2023-04-20T12:08:27.165Z,523.00
2023-04-20T12:09:27.125Z,518.00
2023-04-20T12:10:27.097Z,517.00
2023-04-20T12:11:27.064Z,519.00
2023-04-20T12:12:27.011Z,519.00
2023-04-20T12:13:26.955Z,519.00
2023-04-20T12:14:26.933Z,516.00
2023-04-20T12:15:26.893Z,517.00
2023-04-20T12:16:26.987Z,515.00
2023-04-20T12:17:26.863Z,514.00
2023-04-20T12:18:26.856Z,510.00
2023-04-20T12:19:26.777Z,509.00
2023-04-20T12:20:26.825Z,510.00
2023-04-20T12:21:26.723Z,510.00
2023-04-20T12:22:26.724Z,507.00
2023-04-20T12:23:26.702Z,508.00
2023-04-20T12:24:26.675Z,509.00
2023-04-20T12:25:26.665Z,511.00
2023-04-20T12:26:34.844Z,509.00
2023-04-20T12:27:27.618Z,506.00
2023-04-20T12:28:26.558Z,505.00
2023-04-20T12:29:26.519Z,500.00
2023-04-20T12:30:26.468Z,501.00
2023-04-20T12:31:26.727Z,500.00
2023-04-20T12:32:26.391Z,500.00
2023-04-20T12:33:26.324Z,498.00
2023-04-20T12:34:26.288Z,501.00